TimeCST,TemperatureF,Dew PointF,Humidity,Sea Level PressureIn,VisibilityMPH,Wind Direction,Wind SpeedMPH,Gust SpeedMPH,PrecipitationIn,Events,Conditions,WindDirDegrees,DateUTC
12:53 AM,30.9,28.9,92,30.50,9.0,Calm,Calm,-,N/A,,Clear,0,2013-11-29 06:53:00
1:53 AM,30.0,28.0,92,30.49,2.0,Calm,Calm,-,N/A,,Clear,0,2013-11-29 07:53:00
2:05 AM,30.2,26.6,86,30.49,9.0,Calm,Calm,-,N/A,,Clear,0,2013-11-29 08:05:00
2:53 AM,28.9,26.1,89,30.49,10.0,Calm,Calm,-,N/A,,Clear,0,2013-11-29 08:53:00
3:53 AM,30.0,27.0,88,30.49,10.0,Calm,Calm,-,N/A,,Clear,0,2013-11-29 09:53:00
4:53 AM,30.0,26.1,85,30.50,10.0,Calm,Calm,-,N/A,,Clear,0,2013-11-29 10:53:00
5:53 AM,30.0,27.0,88,30.52,10.0,NE,3.5,-,N/A,,Clear,40,2013-11-29 11:53:00
6:53 AM,28.9,26.1,89,30.53,10.0,NE,3.5,-,N/A,,Clear,40,2013-11-29 12:53:00
7:53 AM,33.1,28.9,85,30.53,10.0,NE,5.8,-,N/A,,Clear,40,2013-11-29 13:53:00
8:53 AM,39.9,32.0,73,30.54,10.0,NE,4.6,-,N/A,,Clear,50,2013-11-29 14:53:00
9:53 AM,48.0,30.0,50,30.54,10.0,NE,8.1,-,N/A,,Clear,50,2013-11-29 15:53:00
10:53 AM,52.0,28.9,41,30.52,10.0,ENE,6.9,-,N/A,,Clear,60,2013-11-29 16:53:00
11:53 AM,55.0,27.0,34,30.49,10.0,East,6.9,-,N/A,,Clear,80,2013-11-29 17:53:00
12:53 PM,57.9,25.0,28,30.46,10.0,NNE,5.8,-,N/A,,Clear,30,2013-11-29 18:53:00
1:53 PM,60.1,24.1,25,30.44,10.0,NE,4.6,-,N/A,,Clear,40,2013-11-29 19:53:00
2:53 PM,60.1,23.0,24,30.43,10.0,Calm,Calm,-,N/A,,Clear,0,2013-11-29 20:53:00
3:53 PM,60.1,23.0,24,30.44,10.0,Calm,Calm,-,N/A,,Clear,0,2013-11-29 21:53:00
4:53 PM,57.0,25.0,29,30.43,10.0,ENE,3.5,-,N/A,,Clear,60,2013-11-29 22:53:00
5:53 PM,48.0,35.1,61,30.43,10.0,Calm,Calm,-,N/A,,Clear,0,2013-11-29 23:53:00
6:53 PM,45.0,35.1,68,30.45,10.0,Calm,Calm,-,N/A,,Clear,0,2013-11-30 00:53:00
7:53 PM,41.0,34.0,76,30.46,10.0,Calm,Calm,-,N/A,,Clear,0,2013-11-30 01:53:00
8:53 PM,37.9,36.0,93,30.45,10.0,Calm,Calm,-,N/A,,Clear,0,2013-11-30 02:53:00
9:53 PM,37.0,35.1,93,30.45,8.0,Calm,Calm,-,N/A,,Clear,0,2013-11-30 03:53:00
10:53 PM,36.0,35.1,97,30.45,8.0,Calm,Calm,-,N/A,,Clear,0,2013-11-30 04:53:00
11:34 PM,35.6,33.8,93,30.44,1.2,Calm,Calm,-,N/A,,Clear,0,2013-11-30 05:34:00
11:42 PM,33.8,33.8,100,30.43,0.8,Calm,Calm,-,N/A,,Clear,0,2013-11-30 05:42:00
11:53 PM,36.0,34.0,93,30.43,0.8,Calm,Calm,-,N/A,,Clear,0,2013-11-30 05:53:00
11:59 PM,33.8,33.8,100,30.43,2.5,Calm,Calm,-,N/A,,Clear,0,2013-11-30 05:59:00